sensor_id;sensor_type;location;lat;lon;timestamp;temperature;humidity
43227;DHT22;28839;52.404;9.808;2023-05-07T00:04:47;9.50;99.90
43227;DHT22;28839;52.404;9.808;2023-05-07T00:11:41;9.60;99.90
43227;DHT22;28839;52.404;9.808;2023-05-07T00:18:36;9.60;99.90
43227;DHT22;28839;52.404;9.808;2023-05-07T00:25:30;9.50;99.90
43227;DHT22;28839;52.404;9.808;2023-05-07T00:32:24;9.40;99.90
43227;DHT22;28839;52.404;9.808;2023-05-07T00:39:19;9.30;99.90
43227;DHT22;28839;52.404;9.808;2023-05-07T00:46:13;9.40;99.90
43227;DHT22;28839;52.404;9.808;2023-05-07T00:53:08;9.40;99.90
43227;DHT22;28839;52.404;9.808;2023-05-07T01:00:04;9.40;99.90
43227;DHT22;28839;52.404;9.808;2023-05-07T01:14:47;9.40;99.90
43227;DHT22;28839;52.404;9.808;2023-05-07T01:21:47;9.20;99.90
43227;DHT22;28839;52.404;9.808;2023-05-07T01:28:42;9.20;99.90
43227;DHT22;28839;52.404;9.808;2023-05-07T01:35:39;9.30;99.90
43227;DHT22;28839;52.404;9.808;2023-05-07T01:42:34;9.30;99.90
43227;DHT22;28839;52.404;9.808;2023-05-07T01:49:29;9.20;99.90
43227;DHT22;28839;52.404;9.808;2023-05-07T01:56:23;9.30;99.90
43227;DHT22;28839;52.404;9.808;2023-05-07T02:03:17;9.30;99.90
43227;DHT22;28839;52.404;9.808;2023-05-07T02:10:12;9.30;99.90
43227;DHT22;28839;52.404;9.808;2023-05-07T02:17:06;9.30;99.90
43227;DHT22;28839;52.404;9.808;2023-05-07T02:24:00;9.30;99.90
43227;DHT22;28839;52.404;9.808;2023-05-07T02:30:55;9.40;99.90
43227;DHT22;28839;52.404;9.808;2023-05-07T02:37:50;9.40;99.90
43227;DHT22;28839;52.404;9.808;2023-05-07T02:44:44;9.40;99.90
43227;DHT22;28839;52.404;9.808;2023-05-07T02:51:39;9.40;99.90
43227;DHT22;28839;52.404;9.808;2023-05-07T02:58:33;9.40;99.90
43227;DHT22;28839;52.404;9.808;2023-05-07T03:05:27;9.40;99.90
43227;DHT22;28839;52.404;9.808;2023-05-07T03:12:22;9.40;99.90
43227;DHT22;28839;52.404;9.808;2023-05-07T03:19:16;9.40;99.90
43227;DHT22;28839;52.404;9.808;2023-05-07T03:26:10;9.50;99.90
43227;DHT22;28839;52.404;9.808;2023-05-07T03:33:05;9.30;99.90
43227;DHT22;28839;52.404;9.808;2023-05-07T03:39:59;9.30;99.90
43227;DHT22;28839;52.404;9.808;2023-05-07T03:46:53;9.20;99.90
43227;DHT22;28839;52.404;9.808;2023-05-07T03:53:49;9.20;99.90
43227;DHT22;28839;52.404;9.808;2023-05-07T04:00:45;9.20;99.90
43227;DHT22;28839;52.404;9.808;2023-05-07T04:07:38;9.10;99.90
43227;DHT22;28839;52.404;9.808;2023-05-07T04:14:34;9.10;99.90
43227;DHT22;28839;52.404;9.808;2023-05-07T04:21:27;9.10;99.90
43227;DHT22;28839;52.404;9.808;2023-05-07T04:28:22;9.20;99.90
43227;DHT22;28839;52.404;9.808;2023-05-07T04:35:17;9.20;99.90
43227;DHT22;28839;52.404;9.808;2023-05-07T04:42:14;9.30;99.90
43227;DHT22;28839;52.404;9.808;2023-05-07T04:49:08;9.30;99.90
43227;DHT22;28839;52.404;9.808;2023-05-07T04:56:04;9.10;99.90
43227;DHT22;28839;52.404;9.808;2023-05-07T05:02:58;9.20;99.90
43227;DHT22;28839;52.404;9.808;2023-05-07T05:09:52;9.30;99.90
43227;DHT22;28839;52.404;9.808;2023-05-07T05:16:47;9.10;99.90
43227;DHT22;28839;52.404;9.808;2023-05-07T05:23:41;9.30;99.90
43227;DHT22;28839;52.404;9.808;2023-05-07T05:30:34;9.20;99.90
43227;DHT22;28839;52.404;9.808;2023-05-07T05:37:30;9.10;99.90
43227;DHT22;28839;52.404;9.808;2023-05-07T05:44:24;9.10;99.90
43227;DHT22;28839;52.404;9.808;2023-05-07T05:51:17;9.20;99.90
43227;DHT22;28839;52.404;9.808;2023-05-07T05:58:13;9.40;99.90
43227;DHT22;28839;52.404;9.808;2023-05-07T06:05:08;9.40;99.90
43227;DHT22;28839;52.404;9.808;2023-05-07T06:12:02;9.50;99.90
43227;DHT22;28839;52.404;9.808;2023-05-07T06:18:57;9.50;99.90
43227;DHT22;28839;52.404;9.808;2023-05-07T06:25:51;9.70;99.90
43227;DHT22;28839;52.404;9.808;2023-05-07T06:32:45;10.00;99.90
43227;DHT22;28839;52.404;9.808;2023-05-07T06:39:40;9.80;99.90
43227;DHT22;28839;52.404;9.808;2023-05-07T06:46:34;9.90;99.90
43227;DHT22;28839;52.404;9.808;2023-05-07T06:53:29;9.90;99.90
43227;DHT22;28839;52.404;9.808;2023-05-07T07:00:25;9.90;99.90
43227;DHT22;28839;52.404;9.808;2023-05-07T07:07:19;10.00;99.90
43227;DHT22;28839;52.404;9.808;2023-05-07T07:14:12;9.90;99.90
43227;DHT22;28839;52.404;9.808;2023-05-07T07:21:08;10.00;99.90
43227;DHT22;28839;52.404;9.808;2023-05-07T07:28:02;10.10;99.90
43227;DHT22;28839;52.404;9.808;2023-05-07T07:34:56;10.10;99.90
43227;DHT22;28839;52.404;9.808;2023-05-07T07:41:51;10.20;99.90
43227;DHT22;28839;52.404;9.808;2023-05-07T07:48:45;10.60;99.90
43227;DHT22;28839;52.404;9.808;2023-05-07T07:55:39;10.80;99.90
43227;DHT22;28839;52.404;9.808;2023-05-07T08:02:34;10.80;99.90
43227;DHT22;28839;52.404;9.808;2023-05-07T08:09:28;11.00;99.90
43227;DHT22;28839;52.404;9.808;2023-05-07T08:16:22;11.00;99.90
43227;DHT22;28839;52.404;9.808;2023-05-07T08:23:17;11.10;99.90
43227;DHT22;28839;52.404;9.808;2023-05-07T08:30:12;11.10;99.90
43227;DHT22;28839;52.404;9.808;2023-05-07T08:37:06;11.20;99.90
43227;DHT22;28839;52.404;9.808;2023-05-07T08:44:03;11.30;99.90
43227;DHT22;28839;52.404;9.808;2023-05-07T08:50:58;11.70;99.90
43227;DHT22;28839;52.404;9.808;2023-05-07T08:57:52;11.80;99.90
43227;DHT22;28839;52.404;9.808;2023-05-07T09:04:47;11.30;99.90
43227;DHT22;28839;52.404;9.808;2023-05-07T09:11:41;11.10;99.90
43227;DHT22;28839;52.404;9.808;2023-05-07T09:18:35;11.20;99.90
43227;DHT22;28839;52.404;9.808;2023-05-07T09:25:35;11.60;99.90
43227;DHT22;28839;52.404;9.808;2023-05-07T09:32:29;11.70;99.90
43227;DHT22;28839;52.404;9.808;2023-05-07T09:39:24;11.50;99.90
43227;DHT22;28839;52.404;9.808;2023-05-07T09:46:25;11.50;99.90
43227;DHT22;28839;52.404;9.808;2023-05-07T09:53:19;11.60;99.90
43227;DHT22;28839;52.404;9.808;2023-05-07T10:00:14;11.80;99.90
43227;DHT22;28839;52.404;9.808;2023-05-07T10:07:10;12.20;99.90
43227;DHT22;28839;52.404;9.808;2023-05-07T10:14:04;12.10;99.90
43227;DHT22;28839;52.404;9.808;2023-05-07T10:21:08;11.70;99.90
43227;DHT22;28839;52.404;9.808;2023-05-07T10:28:07;11.90;99.90
43227;DHT22;28839;52.404;9.808;2023-05-07T10:35:04;12.10;99.90
43227;DHT22;28839;52.404;9.808;2023-05-07T10:42:08;12.40;99.90
43227;DHT22;28839;52.404;9.808;2023-05-07T10:49:12;12.10;99.90
43227;DHT22;28839;52.404;9.808;2023-05-07T10:56:24;12.40;99.90
43227;DHT22;28839;52.404;9.808;2023-05-07T11:03:21;12.70;99.90
43227;DHT22;28839;52.404;9.808;2023-05-07T11:10:17;13.10;99.90
43227;DHT22;28839;52.404;9.808;2023-05-07T11:17:11;12.80;99.90
43227;DHT22;28839;52.404;9.808;2023-05-07T11:24:06;13.20;99.90
43227;DHT22;28839;52.404;9.808;2023-05-07T11:31:02;13.50;99.90
43227;DHT22;28839;52.404;9.808;2023-05-07T11:37:58;13.50;99.90
43227;DHT22;28839;52.404;9.808;2023-05-07T11:44:53;13.30;99.90
43227;DHT22;28839;52.404;9.808;2023-05-07T11:51:48;13.50;99.90
43227;DHT22;28839;52.404;9.808;2023-05-07T11:58:43;13.60;99.90
43227;DHT22;28839;52.404;9.808;2023-05-07T12:05:37;13.90;99.90
43227;DHT22;28839;52.404;9.808;2023-05-07T12:12:39;14.30;99.90
43227;DHT22;28839;52.404;9.808;2023-05-07T12:19:34;13.70;99.90
43227;DHT22;28839;52.404;9.808;2023-05-07T12:26:28;13.60;99.90
43227;DHT22;28839;52.404;9.808;2023-05-07T12:33:25;13.60;99.90
43227;DHT22;28839;52.404;9.808;2023-05-07T12:40:20;13.50;99.90
43227;DHT22;28839;52.404;9.808;2023-05-07T12:47:15;13.00;99.90
43227;DHT22;28839;52.404;9.808;2023-05-07T12:54:10;13.00;99.90
43227;DHT22;28839;52.404;9.808;2023-05-07T13:01:05;13.10;99.90
43227;DHT22;28839;52.404;9.808;2023-05-07T13:07:59;13.40;99.90
43227;DHT22;28839;52.404;9.808;2023-05-07T13:14:55;13.70;99.90
43227;DHT22;28839;52.404;9.808;2023-05-07T13:21:49;13.90;99.90
43227;DHT22;28839;52.404;9.808;2023-05-07T13:28:43;13.60;99.90
43227;DHT22;28839;52.404;9.808;2023-05-07T13:35:38;13.90;99.90
43227;DHT22;28839;52.404;9.808;2023-05-07T13:42:32;13.90;99.90
43227;DHT22;28839;52.404;9.808;2023-05-07T13:49:26;13.70;99.90
43227;DHT22;28839;52.404;9.808;2023-05-07T13:56:21;13.50;99.90
43227;DHT22;28839;52.404;9.808;2023-05-07T14:03:15;13.70;99.90
43227;DHT22;28839;52.404;9.808;2023-05-07T14:10:10;13.60;99.90
43227;DHT22;28839;52.404;9.808;2023-05-07T14:17:06;13.90;99.90
43227;DHT22;28839;52.404;9.808;2023-05-07T14:24:00;14.00;99.90
43227;DHT22;28839;52.404;9.808;2023-05-07T14:30:54;14.40;99.90
43227;DHT22;28839;52.404;9.808;2023-05-07T14:37:49;13.80;99.90
43227;DHT22;28839;52.404;9.808;2023-05-07T14:44:44;13.70;99.90
43227;DHT22;28839;52.404;9.808;2023-05-07T14:51:39;13.80;99.90
43227;DHT22;28839;52.404;9.808;2023-05-07T14:58:34;14.10;99.90
43227;DHT22;28839;52.404;9.808;2023-05-07T15:05:28;13.80;99.90
43227;DHT22;28839;52.404;9.808;2023-05-07T15:12:22;13.70;99.90
43227;DHT22;28839;52.404;9.808;2023-05-07T15:19:17;13.40;99.90
43227;DHT22;28839;52.404;9.808;2023-05-07T15:26:11;13.50;99.90
43227;DHT22;28839;52.404;9.808;2023-05-07T15:33:05;13.90;99.90
43227;DHT22;28839;52.404;9.808;2023-05-07T15:40:00;13.90;99.90
43227;DHT22;28839;52.404;9.808;2023-05-07T15:46:54;13.80;99.90
43227;DHT22;28839;52.404;9.808;2023-05-07T15:53:49;13.80;99.90
43227;DHT22;28839;52.404;9.808;2023-05-07T16:00:44;13.80;99.90
43227;DHT22;28839;52.404;9.808;2023-05-07T16:07:40;13.60;99.90
43227;DHT22;28839;52.404;9.808;2023-05-07T16:14:35;13.60;99.90
43227;DHT22;28839;52.404;9.808;2023-05-07T16:21:31;13.40;99.90
43227;DHT22;28839;52.404;9.808;2023-05-07T16:28:26;13.30;99.90
43227;DHT22;28839;52.404;9.808;2023-05-07T16:35:20;13.10;99.90
43227;DHT22;28839;52.404;9.808;2023-05-07T16:42:16;13.40;99.90
43227;DHT22;28839;52.404;9.808;2023-05-07T16:49:09;13.10;99.90
43227;DHT22;28839;52.404;9.808;2023-05-07T16:56:04;13.10;99.90
43227;DHT22;28839;52.404;9.808;2023-05-07T17:03:01;13.10;99.90
43227;DHT22;28839;52.404;9.808;2023-05-07T17:09:55;13.00;99.90
43227;DHT22;28839;52.404;9.808;2023-05-07T17:16:49;12.80;99.90
43227;DHT22;28839;52.404;9.808;2023-05-07T17:23:44;12.90;99.90
43227;DHT22;28839;52.404;9.808;2023-05-07T17:30:38;12.60;99.90
43227;DHT22;28839;52.404;9.808;2023-05-07T17:37:32;12.30;99.90
43227;DHT22;28839;52.404;9.808;2023-05-07T17:44:27;12.20;99.90
43227;DHT22;28839;52.404;9.808;2023-05-07T17:51:21;12.10;99.90
43227;DHT22;28839;52.404;9.808;2023-05-07T17:58:15;12.00;99.90
43227;DHT22;28839;52.404;9.808;2023-05-07T18:05:10;12.00;99.90
43227;DHT22;28839;52.404;9.808;2023-05-07T18:12:05;11.80;99.90
43227;DHT22;28839;52.404;9.808;2023-05-07T18:18:59;11.70;99.90
43227;DHT22;28839;52.404;9.808;2023-05-07T18:25:54;11.70;99.90
43227;DHT22;28839;52.404;9.808;2023-05-07T18:32:48;11.60;99.90
43227;DHT22;28839;52.404;9.808;2023-05-07T18:39:42;11.60;99.90
43227;DHT22;28839;52.404;9.808;2023-05-07T18:46:37;11.60;99.90
43227;DHT22;28839;52.404;9.808;2023-05-07T18:53:31;11.60;99.90
43227;DHT22;28839;52.404;9.808;2023-05-07T19:00:25;11.40;99.90
43227;DHT22;28839;52.404;9.808;2023-05-07T19:07:20;11.40;99.90
43227;DHT22;28839;52.404;9.808;2023-05-07T19:14:14;11.30;99.90
43227;DHT22;28839;52.404;9.808;2023-05-07T19:21:08;11.30;99.90
43227;DHT22;28839;52.404;9.808;2023-05-07T19:28:03;11.20;99.90
43227;DHT22;28839;52.404;9.808;2023-05-07T19:34:57;11.00;99.90
43227;DHT22;28839;52.404;9.808;2023-05-07T19:41:51;11.00;99.90
43227;DHT22;28839;52.404;9.808;2023-05-07T19:48:46;10.90;99.90
43227;DHT22;28839;52.404;9.808;2023-05-07T19:55:40;10.90;99.90
43227;DHT22;28839;52.404;9.808;2023-05-07T20:02:34;10.80;99.90
43227;DHT22;28839;52.404;9.808;2023-05-07T20:09:34;10.80;99.90
43227;DHT22;28839;52.404;9.808;2023-05-07T20:16:30;10.70;99.90
43227;DHT22;28839;52.404;9.808;2023-05-07T20:23:26;10.70;99.90
43227;DHT22;28839;52.404;9.808;2023-05-07T20:30:21;10.60;99.90
43227;DHT22;28839;52.404;9.808;2023-05-07T20:37:15;10.70;99.90
43227;DHT22;28839;52.404;9.808;2023-05-07T20:44:09;10.60;99.90
43227;DHT22;28839;52.404;9.808;2023-05-07T20:51:04;10.50;99.90
43227;DHT22;28839;52.404;9.808;2023-05-07T20:57:58;10.40;99.90
43227;DHT22;28839;52.404;9.808;2023-05-07T21:04:52;10.40;99.90
43227;DHT22;28839;52.404;9.808;2023-05-07T21:11:47;10.30;99.90
43227;DHT22;28839;52.404;9.808;2023-05-07T21:18:41;10.30;99.90
43227;DHT22;28839;52.404;9.808;2023-05-07T21:25:36;10.30;99.90
43227;DHT22;28839;52.404;9.808;2023-05-07T21:32:32;10.10;99.90
43227;DHT22;28839;52.404;9.808;2023-05-07T21:39:26;10.00;99.90
43227;DHT22;28839;52.404;9.808;2023-05-07T21:46:19;9.90;99.90
43227;DHT22;28839;52.404;9.808;2023-05-07T21:53:15;9.90;99.90
43227;DHT22;28839;52.404;9.808;2023-05-07T22:00:09;9.80;99.90
43227;DHT22;28839;52.404;9.808;2023-05-07T22:07:03;9.80;99.90
43227;DHT22;28839;52.404;9.808;2023-05-07T22:13:59;9.80;99.90
43227;DHT22;28839;52.404;9.808;2023-05-07T22:20:53;9.60;99.90
43227;DHT22;28839;52.404;9.808;2023-05-07T22:27:47;9.60;99.90
43227;DHT22;28839;52.404;9.808;2023-05-07T22:34:42;9.60;99.90
43227;DHT22;28839;52.404;9.808;2023-05-07T22:41:36;9.40;99.90
43227;DHT22;28839;52.404;9.808;2023-05-07T22:48:31;9.50;99.90
43227;DHT22;28839;52.404;9.808;2023-05-07T22:55:26;9.40;99.90
43227;DHT22;28839;52.404;9.808;2023-05-07T23:02:20;9.30;99.90
43227;DHT22;28839;52.404;9.808;2023-05-07T23:09:14;9.30;99.90
43227;DHT22;28839;52.404;9.808;2023-05-07T23:16:09;9.30;99.90
43227;DHT22;28839;52.404;9.808;2023-05-07T23:23:03;9.30;99.90
43227;DHT22;28839;52.404;9.808;2023-05-07T23:29:57;9.20;99.90
43227;DHT22;28839;52.404;9.808;2023-05-07T23:36:52;9.20;99.90
43227;DHT22;28839;52.404;9.808;2023-05-07T23:43:46;9.10;99.90
43227;DHT22;28839;52.404;9.808;2023-05-07T23:50:40;9.10;99.90
43227;DHT22;28839;52.404;9.808;2023-05-07T23:57:35;8.90;99.90
